Airfield :
LOGIN :

Register | Disclaimer

   EN    FR    IT 

 










Legend :    VFR   Marginal VFR   IFR   Intensive IFR   Very Intensive IFR
Visi :
Ceiling :
>= 8 km
>= 3000ft
5 to 8 km
1000 to 3000 ft
1500m to 5 km
500 to 1000 ft
800 to 1500m
200 to 500 ft
< 800m
< 200 ft
Symbols :   Thunderstorms  Fog  Heavy snow  Heavy precipitations  Wind > 20 kt
SIGMETs :     Misc.  Thunderstorms  Icing  Turbulence  Mountain Waves  Volcanic Ashes






- Airport Elevation : 138 ft
- IATA code : BIO


LEBB - Bilbao

CURRENT METAR :
  • 042000Z 07004KT 010V120 9999 RA BKN040 BKN050 06/04 Q0995 TEMPO RA

EXPIRED METARs :
  • 041930Z VRB01KT 9999 FEW038 SCT066 05/04 Q0995 TEMPO RA
  • 041900Z 29004KT 230V310 9999 FEW029 SCT037 05/03 Q0995 TEMPO RA
  • 041830Z 30006KT 9999 SCT027 OVC037 06/04 Q0994 RERA TEMPO RA
  • 041800Z 27005KT 240V300 9999 RA SCT030 BKN038 BKN049 06/04 Q0994 TEMPO RA

TAF TAF LEBB
Valid from the 04 at 18:00 until the 05 at 18:00 UTC


041700Z 0418/0518 26009KT 9999 SCT025 BKN040 TX08/0514Z TN03/0506Z
TEMPO 0418/0420 29015G28KT
TEMPO 0418/0518 3000 RA SHRA SCT030TCU
PROB30
TEMPO 0418/0518 TSGR SCT030CB
TEMPO 0512/0518 27015G25KT



MET'MAP, your aeronautical weather chart ! - Copyright ORBIFLY December 2007 - Disclaimer

ORBIFLY MET'MAP TEAM :

Programming & Development : Alexandra Zaïnal
Concept & original design : Baudouin d'Aumeries
Assistance for programming : Marc-Olivier Méhu
Technical & hardware support : Manuel Goepfert

Contact : metmap@orbifly.com




SOURCES & CREDITS :

   NOAA